createdAt,value
2023-04-09T00:01:24.705Z,5.07
2023-04-09T00:04:26.615Z,4.47
2023-04-09T00:07:28.531Z,4.87
2023-04-09T00:10:30.585Z,4.70
2023-04-09T00:13:39.345Z,4.30
2023-04-09T00:16:41.706Z,4.63
2023-04-09T00:19:43.688Z,4.93
2023-04-09T00:22:45.571Z,4.70
2023-04-09T00:25:47.419Z,4.40
2023-04-09T00:28:49.661Z,4.90
2023-04-09T00:31:51.956Z,4.95
2023-04-09T00:34:53.799Z,5.57
2023-04-09T00:37:55.690Z,5.20
2023-04-09T00:40:57.641Z,5.53
2023-04-09T00:43:59.492Z,4.90
2023-04-09T00:47:01.462Z,5.70
2023-04-09T00:50:03.820Z,5.60
2023-04-09T00:53:06.305Z,4.88
2023-04-09T00:56:08.238Z,5.45
2023-04-09T00:59:10.396Z,5.77
2023-04-09T01:02:12.720Z,5.30
2023-04-09T01:05:15.773Z,5.22
2023-04-09T01:08:49.144Z,5.78
2023-04-09T01:12:07.627Z,5.97
2023-04-09T01:15:13.892Z,5.85
2023-04-09T01:18:31.191Z,5.10
2023-04-09T01:21:34.417Z,5.40
2023-04-09T01:24:42.772Z,5.80
2023-04-09T01:28:06.149Z,5.45
2023-04-09T01:31:13.587Z,5.97
2023-04-09T01:34:16.938Z,5.82
2023-04-09T01:37:20.623Z,6.65
2023-04-09T01:40:22.939Z,6.32
2023-04-09T01:43:27.534Z,5.85
2023-04-09T01:46:30.616Z,5.97
2023-04-09T01:49:33.303Z,5.95
2023-04-09T01:52:35.465Z,5.88
2023-04-09T01:55:37.421Z,5.70
2023-04-09T01:58:39.298Z,5.77
2023-04-09T02:01:48.316Z,5.60
2023-04-09T02:04:54.383Z,5.22
2023-04-09T02:07:59.916Z,6.22
2023-04-09T02:11:05.040Z,5.60
2023-04-09T02:14:09.032Z,5.57
2023-04-09T02:17:11.631Z,6.22
2023-04-09T02:20:18.773Z,5.32
2023-04-09T02:23:21.668Z,5.50
2023-04-09T02:26:24.351Z,5.78
2023-04-09T02:29:26.212Z,5.75
2023-04-09T02:32:28.217Z,6.00
2023-04-09T02:35:30.356Z,6.20
2023-04-09T02:38:32.762Z,5.85
2023-04-09T02:41:34.565Z,5.88
2023-04-09T02:44:36.569Z,6.05
2023-04-09T02:47:38.958Z,6.25
2023-04-09T02:50:41.418Z,6.10
2023-04-09T02:53:43.396Z,6.43
2023-04-09T02:56:45.344Z,6.30
2023-04-09T02:59:47.379Z,6.87
2023-04-09T03:02:50.924Z,6.63
2023-04-09T03:05:53.098Z,6.28
2023-04-09T03:08:54.997Z,6.10
2023-04-09T03:15:00.484Z,6.32
2023-04-09T03:18:02.490Z,6.50
2023-04-09T03:21:08.700Z,6.30
2023-04-09T03:24:13.563Z,6.28
2023-04-09T03:27:16.480Z,6.57
2023-04-09T03:30:18.600Z,6.20
2023-04-09T03:33:20.790Z,6.40
2023-04-09T03:36:28.246Z,6.88
2023-04-09T03:39:37.967Z,7.10
2023-04-09T03:42:39.884Z,6.90
2023-04-09T03:45:43.343Z,6.88
2023-04-09T03:49:00.784Z,6.53
2023-04-09T03:52:11.510Z,6.95
2023-04-09T03:55:17.418Z,6.20
2023-04-09T03:58:19.763Z,7.43
2023-04-09T04:04:32.194Z,6.80
2023-04-09T04:07:34.095Z,6.45
2023-04-09T04:10:42.034Z,6.32
2023-04-09T04:13:45.602Z,7.20
2023-04-09T04:16:47.545Z,6.67
2023-04-09T04:19:53.551Z,7.10
2023-04-09T04:22:57.835Z,6.85
2023-04-09T04:26:01.546Z,6.47
2023-04-09T04:29:08.873Z,6.32
2023-04-09T04:32:29.986Z,7.35
2023-04-09T04:35:36.095Z,7.50
2023-04-09T04:38:41.800Z,8.15
2023-04-09T04:41:50.717Z,7.25
2023-04-09T04:44:58.885Z,6.43
2023-04-09T04:48:11.015Z,6.83
2023-04-09T04:51:12.939Z,7.10
2023-04-09T04:54:20.769Z,7.13
2023-04-09T04:57:26.800Z,6.97
2023-04-09T05:00:29.793Z,7.43
2023-04-09T05:03:36.148Z,7.05
2023-04-09T05:06:58.031Z,7.10
2023-04-09T05:13:09.379Z,6.10
2023-04-09T05:16:20.104Z,7.60
2023-04-09T05:19:28.562Z,7.32
2023-04-09T05:22:36.984Z,7.13
2023-04-09T05:25:40.036Z,6.95
2023-04-09T05:28:47.608Z,7.38
2023-04-09T05:31:53.581Z,6.90
2023-04-09T05:35:05.154Z,7.78
2023-04-09T05:38:13.672Z,7.53
2023-04-09T05:41:17.999Z,7.70
2023-04-09T05:44:30.636Z,6.97
2023-04-09T05:47:47.282Z,7.90
2023-04-09T05:50:55.451Z,8.02
2023-04-09T05:54:01.336Z,7.65
2023-04-09T05:57:08.194Z,7.90
2023-04-09T06:00:13.593Z,8.10
2023-04-09T06:03:18.765Z,7.70
2023-04-09T06:06:20.956Z,7.80
2023-04-09T06:09:22.871Z,8.00
2023-04-09T06:12:24.758Z,8.18
2023-04-09T06:15:26.848Z,8.30
2023-04-09T06:18:29.650Z,7.97
2023-04-09T06:21:31.497Z,8.20
2023-04-09T06:24:33.423Z,8.90
2023-04-09T06:27:35.582Z,8.20
2023-04-09T06:30:37.496Z,7.53
2023-04-09T06:33:39.400Z,6.93
2023-04-09T06:36:41.425Z,8.10
2023-04-09T06:39:47.716Z,7.55
2023-04-09T06:42:59.930Z,7.72
2023-04-09T06:46:05.735Z,7.20
2023-04-09T06:49:07.631Z,7.53
2023-04-09T06:52:09.589Z,8.37
2023-04-09T06:55:11.654Z,7.32
2023-04-09T06:58:13.547Z,6.97
2023-04-09T07:01:17.442Z,6.87
2023-04-09T07:04:19.478Z,7.03
2023-04-09T07:07:24.267Z,6.82
2023-04-09T07:10:27.321Z,7.10
2023-04-09T07:13:29.707Z,6.67
2023-04-09T07:16:31.800Z,6.15
2023-04-09T07:19:33.764Z,6.47
2023-04-09T07:22:36.462Z,8.63
2023-04-09T07:28:40.622Z,7.47
2023-04-09T07:31:42.626Z,7.60
2023-04-09T07:34:45.545Z,7.18
2023-04-09T07:37:47.407Z,6.70
2023-04-09T07:40:49.410Z,7.13
2023-04-09T07:43:51.672Z,6.85
2023-04-09T07:46:53.540Z,6.88
2023-04-09T07:49:55.499Z,7.23
2023-04-09T07:52:57.457Z,7.13
2023-04-09T07:55:59.304Z,7.23
2023-04-09T07:59:01.157Z,7.90
2023-04-09T08:02:03.304Z,7.40
2023-04-09T08:05:05.934Z,7.22
2023-04-09T08:08:07.906Z,6.85
2023-04-09T08:11:09.780Z,7.10
2023-04-09T08:14:16.315Z,6.60
2023-04-09T08:17:18.225Z,6.70
2023-04-09T08:20:20.204Z,6.83
2023-04-09T08:23:22.125Z,7.90
2023-04-09T08:26:24.045Z,6.90
2023-04-09T08:29:27.040Z,6.70
2023-04-09T08:32:29.355Z,6.75
2023-04-09T08:35:31.668Z,6.93
2023-04-09T08:38:33.468Z,7.22
2023-04-09T08:41:41.157Z,7.27
2023-04-09T08:44:43.850Z,6.85
2023-04-09T08:47:48.053Z,7.03
2023-04-09T08:50:50.499Z,10.80
2023-04-09T08:53:55.447Z,6.93
2023-04-09T08:56:57.652Z,7.03
2023-04-09T08:59:59.523Z,8.38
2023-04-09T09:03:09.483Z,7.60
2023-04-09T09:06:22.593Z,6.72
2023-04-09T09:09:26.836Z,7.68
2023-04-09T09:12:36.221Z,8.65
2023-04-09T09:15:38.120Z,5.03
2023-04-09T09:18:41.755Z,6.20
2023-04-09T09:21:43.784Z,5.63
2023-04-09T09:24:50.290Z,6.18
2023-04-09T09:27:53.489Z,5.13
2023-04-09T09:30:55.487Z,6.30
2023-04-09T09:33:57.506Z,6.85
2023-04-09T09:36:59.464Z,6.32
2023-04-09T09:40:01.627Z,5.30
2023-04-09T09:43:03.689Z,4.85
2023-04-09T09:46:06.280Z,5.47
2023-04-09T09:49:09.584Z,4.57
2023-04-09T09:52:11.670Z,4.82
2023-04-09T09:55:18.113Z,5.32
2023-04-09T09:58:27.919Z,4.40
2023-04-09T10:01:30.365Z,5.25
2023-04-09T10:04:38.311Z,5.45
2023-04-09T10:07:41.627Z,5.85
2023-04-09T10:10:44.024Z,4.95
2023-04-09T10:13:59.471Z,5.07
2023-04-09T10:17:04.122Z,5.18
2023-04-09T10:20:23.063Z,5.15
2023-04-09T10:23:34.128Z,4.85
2023-04-09T10:26:40.328Z,5.47
2023-04-09T10:29:47.436Z,7.25
2023-04-09T10:32:49.375Z,5.60
2023-04-09T10:35:51.825Z,8.18
2023-04-09T10:38:53.968Z,5.07
2023-04-09T10:41:59.682Z,5.88
2023-04-09T10:45:15.491Z,6.63
2023-04-09T10:48:19.554Z,45.25
2023-04-09T10:51:21.482Z,6.10
2023-04-09T10:54:35.494Z,6.43
2023-04-09T10:57:37.635Z,12.57
2023-04-09T11:00:44.248Z,6.18
2023-04-09T11:04:08.962Z,5.22
2023-04-09T11:07:15.950Z,4.95
2023-04-09T11:10:18.798Z,4.22
2023-04-09T11:13:22.032Z,5.95
2023-04-09T11:16:26.584Z,5.18
2023-04-09T11:19:30.127Z,5.18
2023-04-09T11:22:31.987Z,5.32
2023-04-09T11:25:35.315Z,6.13
2023-04-09T11:28:37.298Z,5.90
2023-04-09T11:31:39.314Z,6.60
2023-04-09T11:34:41.142Z,4.85
2023-04-09T11:37:44.357Z,4.97
2023-04-09T11:40:49.408Z,4.90
2023-04-09T11:43:52.226Z,4.78
2023-04-09T11:46:54.631Z,4.75
2023-04-09T11:49:56.730Z,4.75
2023-04-09T11:52:58.933Z,4.97
2023-04-09T11:56:01.704Z,6.47
2023-04-09T12:03:05.490Z,5.28
2023-04-09T12:09:13.745Z,4.97
2023-04-09T12:12:20.507Z,5.57
2023-04-09T12:15:22.425Z,5.22
2023-04-09T12:18:24.873Z,4.60
2023-04-09T12:21:27.578Z,4.93
2023-04-09T12:24:29.469Z,4.95
2023-04-09T12:27:33.478Z,8.57
2023-04-09T12:30:36.324Z,6.70
2023-04-09T12:33:40.494Z,6.55
2023-04-09T12:36:42.594Z,5.13
2023-04-09T12:39:44.602Z,5.47
2023-04-09T12:42:47.471Z,11.80
2023-04-09T12:45:49.469Z,5.97
2023-04-09T12:48:51.562Z,8.63
2023-04-09T12:51:53.402Z,13.13
2023-04-09T12:54:55.632Z,9.77
2023-04-09T12:57:58.364Z,10.40
2023-04-09T13:01:01.021Z,6.40
2023-04-09T13:07:05.146Z,4.67
2023-04-09T13:10:07.481Z,6.07
2023-04-09T13:13:12.205Z,6.63
2023-04-09T13:16:14.081Z,8.27
2023-04-09T13:19:15.967Z,19.67
2023-04-09T13:22:18.876Z,61.33
2023-04-09T13:25:20.963Z,26.83
2023-04-09T13:28:22.856Z,25.33
2023-04-09T13:31:25.270Z,7.63
2023-04-09T13:37:29.139Z,27.83
2023-04-09T13:40:31.213Z,4.97
2023-04-09T13:43:33.103Z,5.60
2023-04-09T13:46:35.024Z,4.80
2023-04-09T13:49:36.953Z,5.05
2023-04-09T13:52:38.786Z,5.50
2023-04-09T13:55:40.851Z,6.97
2023-04-09T13:58:43.814Z,13.38
2023-04-09T14:01:45.882Z,5.93
2023-04-09T14:04:47.897Z,4.72
2023-04-09T14:07:49.869Z,5.20
2023-04-09T14:10:51.723Z,5.00
2023-04-09T14:13:53.824Z,4.75
2023-04-09T14:16:56.015Z,4.45
2023-04-09T14:19:59.175Z,5.18
2023-04-09T14:23:01.277Z,4.80
2023-04-09T14:26:04.370Z,6.32
2023-04-09T14:29:06.200Z,6.93
2023-04-09T14:32:08.266Z,7.53
2023-04-09T14:35:10.489Z,10.95
2023-04-09T14:38:12.949Z,5.55
2023-04-09T14:41:14.924Z,7.28
2023-04-09T14:44:16.801Z,6.35
2023-04-09T14:47:18.641Z,9.52
2023-04-09T14:50:21.252Z,10.68
2023-04-09T14:56:25.559Z,7.10
2023-04-09T14:59:27.628Z,6.03
2023-04-09T15:02:29.648Z,6.05
2023-04-09T15:05:31.689Z,5.53
2023-04-09T15:08:33.704Z,5.13
2023-04-09T15:11:35.668Z,5.53
2023-04-09T15:14:37.589Z,4.80
2023-04-09T15:17:39.763Z,12.38
2023-04-09T15:20:43.487Z,7.80
2023-04-09T15:23:46.244Z,7.50
2023-04-09T15:29:50.032Z,7.85
2023-04-09T15:32:52.819Z,9.25
2023-04-09T15:35:54.823Z,8.57
2023-04-09T15:38:56.659Z,8.63
2023-04-09T15:41:58.677Z,8.50
2023-04-09T15:45:00.677Z,8.48
2023-04-09T15:48:02.613Z,7.90
2023-04-09T15:51:08.063Z,8.02
2023-04-09T15:54:09.876Z,8.13
2023-04-09T15:57:11.847Z,7.83
2023-04-09T16:00:14.124Z,7.72
2023-04-09T16:03:16.320Z,7.65
2023-04-09T16:06:19.809Z,11.00
2023-04-09T16:09:21.777Z,9.65
2023-04-09T16:12:24.896Z,8.55
2023-04-09T16:15:27.212Z,6.85
2023-04-09T16:18:29.304Z,7.28
2023-04-09T16:21:31.252Z,8.73
2023-04-09T16:24:33.250Z,8.55
2023-04-09T16:27:35.327Z,14.15
2023-04-09T16:30:37.746Z,13.77
2023-04-09T16:33:39.746Z,11.55
2023-04-09T16:36:41.780Z,7.82
2023-04-09T16:39:43.618Z,7.65
2023-04-09T16:42:45.458Z,9.13
2023-04-09T16:45:47.395Z,9.50
2023-04-09T16:48:49.199Z,11.85
2023-04-09T16:51:53.220Z,12.93
2023-04-09T16:54:55.641Z,14.02
2023-04-09T16:57:57.446Z,12.88
2023-04-09T17:00:59.405Z,12.87
2023-04-09T17:04:03.195Z,12.27
2023-04-09T17:07:05.214Z,11.35
2023-04-09T17:10:07.802Z,13.33
2023-04-09T17:13:09.920Z,24.15
2023-04-09T17:16:11.992Z,27.85
2023-04-09T17:19:13.981Z,20.95
2023-04-09T17:22:17.903Z,26.27
2023-04-09T17:25:20.710Z,39.97
2023-04-09T17:28:22.691Z,35.03
2023-04-09T17:31:24.668Z,34.23
2023-04-09T17:34:26.664Z,32.35
2023-04-09T17:37:29.262Z,27.08
2023-04-09T17:40:32.047Z,28.52
2023-04-09T17:46:36.684Z,24.95
2023-04-09T17:49:39.355Z,41.47
2023-04-09T17:52:41.248Z,45.95
2023-04-09T17:55:50.983Z,36.20
2023-04-09T17:58:53.608Z,38.30
2023-04-09T18:05:02.811Z,36.13
2023-04-09T18:08:05.218Z,38.00
2023-04-09T18:11:11.850Z,38.45
2023-04-09T18:14:16.182Z,40.53
2023-04-09T18:17:18.057Z,39.38
2023-04-09T18:20:20.077Z,32.23
2023-04-09T18:23:22.030Z,32.53
2023-04-09T18:26:24.063Z,34.10
2023-04-09T18:29:27.591Z,35.85
2023-04-09T18:32:29.861Z,34.70
2023-04-09T18:35:31.860Z,34.67
2023-04-09T18:38:34.741Z,35.17
2023-04-09T18:41:36.614Z,34.42
2023-04-09T18:44:38.798Z,33.65
2023-04-09T18:47:40.958Z,32.80
2023-04-09T18:50:42.866Z,31.40
2023-04-09T18:53:48.153Z,30.50
2023-04-09T18:56:50.053Z,30.75
2023-04-09T18:59:51.957Z,28.57
2023-04-09T19:02:54.252Z,29.87
2023-04-09T19:05:56.447Z,29.42
2023-04-09T19:08:59.103Z,31.03
2023-04-09T19:12:02.069Z,28.30
2023-04-09T19:15:04.946Z,28.02
2023-04-09T19:21:09.136Z,31.55
2023-04-09T19:24:11.419Z,33.95
2023-04-09T19:27:14.159Z,31.23
2023-04-09T19:30:16.199Z,27.15
2023-04-09T19:33:22.209Z,29.60
2023-04-09T19:36:24.303Z,32.22
2023-04-09T19:39:26.215Z,32.35
2023-04-09T19:42:28.878Z,31.43
2023-04-09T19:45:31.732Z,29.48
2023-04-09T19:48:35.520Z,27.73
2023-04-09T19:51:37.513Z,28.95
2023-04-09T19:54:39.409Z,21.03
2023-04-09T19:57:43.658Z,23.65
2023-04-09T20:00:45.704Z,17.75
2023-04-09T20:03:48.219Z,16.07
2023-04-09T20:06:51.772Z,16.40
2023-04-09T20:09:53.654Z,14.73
2023-04-09T20:12:55.688Z,11.68
2023-04-09T20:15:57.849Z,10.52
2023-04-09T20:18:59.717Z,7.65
2023-04-09T20:22:02.247Z,7.43
2023-04-09T20:25:04.306Z,6.65
2023-04-09T20:28:06.507Z,6.32
2023-04-09T20:31:08.404Z,6.13
2023-04-09T20:34:10.560Z,6.23
2023-04-09T20:37:12.523Z,6.03
2023-04-09T20:40:14.475Z,5.83
2023-04-09T20:43:16.724Z,5.63
2023-04-09T20:46:18.728Z,4.70
2023-04-09T20:49:20.767Z,5.07
2023-04-09T20:52:23.543Z,5.45
2023-04-09T20:55:26.580Z,4.93
2023-04-09T20:58:28.578Z,4.88
2023-04-09T21:01:30.684Z,5.20
2023-04-09T21:04:32.645Z,4.90
2023-04-09T21:07:34.579Z,4.23
2023-04-09T21:10:36.533Z,4.43
2023-04-09T21:13:53.053Z,3.80
2023-04-09T21:16:56.809Z,3.47
2023-04-09T21:19:58.796Z,3.45
2023-04-09T21:23:00.798Z,3.00
2023-04-09T21:26:04.789Z,3.57
2023-04-09T21:29:06.627Z,2.53
2023-04-09T21:32:08.575Z,2.55
2023-04-09T21:35:10.538Z,3.10
2023-04-09T21:38:12.467Z,2.83
2023-04-09T21:41:14.301Z,2.87
2023-04-09T21:44:16.203Z,2.90
2023-04-09T21:47:18.182Z,2.72
2023-04-09T21:50:20.142Z,2.80
2023-04-09T21:53:22.034Z,2.60
2023-04-09T21:56:23.931Z,2.80
2023-04-09T21:59:25.834Z,2.80
2023-04-09T22:02:28.414Z,3.00
2023-04-09T22:05:31.973Z,2.30
2023-04-09T22:08:35.366Z,2.22
2023-04-09T22:11:41.587Z,2.88
2023-04-09T22:14:43.459Z,2.60
2023-04-09T22:17:45.679Z,2.70
2023-04-09T22:20:47.658Z,3.15
2023-04-09T22:23:50.637Z,2.75
2023-04-09T22:26:53.557Z,2.78
2023-04-09T22:32:57.316Z,2.15
2023-04-09T22:35:59.636Z,2.90
2023-04-09T22:39:01.659Z,1.75
2023-04-09T22:42:03.868Z,2.17
2023-04-09T22:45:06.216Z,2.35
2023-04-09T22:48:08.506Z,2.50
2023-04-09T22:51:10.378Z,2.45
2023-04-09T22:54:12.334Z,2.00
2023-04-09T22:57:14.274Z,2.33
2023-04-09T23:00:16.426Z,2.13
2023-04-09T23:03:18.473Z,1.83
2023-04-09T23:06:20.815Z,2.40
2023-04-09T23:09:22.828Z,2.85
2023-04-09T23:12:24.722Z,2.10
2023-04-09T23:15:27.182Z,2.00
2023-04-09T23:18:29.082Z,2.25
2023-04-09T23:21:31.810Z,1.83
2023-04-09T23:24:33.664Z,2.35
2023-04-09T23:27:35.598Z,2.30
2023-04-09T23:30:37.425Z,2.47
2023-04-09T23:33:39.302Z,2.17
2023-04-09T23:36:41.253Z,2.30
2023-04-09T23:39:43.634Z,2.20
2023-04-09T23:42:47.956Z,2.10
2023-04-09T23:45:50.672Z,2.00
2023-04-09T23:48:52.668Z,2.17
2023-04-09T23:51:54.618Z,2.07
2023-04-09T23:54:56.484Z,2.22
2023-04-09T23:57:58.333Z,2.22
